EW9027 Weather Reports


Display with metric or nautical units.
time (UTC)temp
F
wind
direction
speed
MPH
gust
MPH
rain 1hr
in
rain 24hr
in
rain mn
in
humidity
%
barometer
mb
20191112140057 37 46 0.0 4.0 0.01 0.09 0.09 95 1005.7
20191112134629 37 39 0.0 2.0 0.02 0.09 0.09 95 1005.9
20191112133054 37 69 0.0 1.0 0.01 0.08 0.08 94 1006.2
20191112131620 37 46 0.0 2.0 0.02 0.08 0.08 94 1006.3
20191112130059 37 40 0.0 1.0 0.02 0.08 0.08 94 1006.6
20191112124614 37 51 0.0 1.0 0.02 0.07 0.07 95 1006.6
20191112123124 37 58 0.0 3.0 0.02 0.07 0.07 94 1006.6
20191112121535 37 44 0.0 2.0 0.01 0.06 0.06 94 1006.7
20191112120054 37 41 0.0 1.0 0.01 0.06 0.06 95 1006.7
20191112114605 37 60 0.0 2.0 0.02 0.06 0.06 95 1006.5
20191112113037 37 70 0.0 3.0 0.02 0.06 0.06 94 1006.5
20191112111628 37 17 0.0 2.0 0.02 0.06 0.06 94 1006.5
20191112110041 38 38 0.0 2.0 0.02 0.05 0.05 94 1006.7
20191112104529 38 55 0.0 3.0 0.02 0.04 0.04 93 1007.1
20191112103021 38 40 0.0 1.0 0.02 0.04 0.04 93 1007.4
20191112101532 38 46 0.0 2.0 0.02 0.03 0.03 93 1007.4
20191112100036 38 65 0.0 3.0 0.02 0.03 0.02 93 1007.3
20191112094608 38 120 0.0 0.0 0.02 0.02 0.02 94 1007.6
20191112093037 38 120 0.0 1.0 0.02 0.02 0.02 93 1007.8
20191112091536 38 195 0.0 1.0 0.01 0.02 0.01 93 1008.1
20191112090022 38 227 0.0 3.0 0.01 0.02 0.01 93 1008.1
20191112084532 38 152 0.0 2.0 0.00 0.01 0.00 93 1008.1
20191112083035 39 222 0.0 1.0 0.00 0.01 0.00 92 1008.4
20191112081516 38 241 0.0 0.0 0.00 0.01 0.00 92 1008.4
20191112080026 38 241 0.0 0.0 0.00 0.01 0.00 93 1008.3
20191112074537 38 241 0.0 0.0 0.00 0.01 0.00 93 1008.3
20191112073032 38 241 0.0 1.0 0.00 0.01 0.00 94 1008.4
20191112071503 38 169 0.0 0.0 0.00 0.01 0.00 94 1008.1
20191112070002 38 169 0.0 0.0 0.00 0.01 0.00 94 1008.4
20191112064844 38 169 0.0 1.0 0.00 0.01 0.00 94 1008.3
20191112063111 38 216 0.0 1.0 0.00 0.01 0.00 94 1008.2
20191112061702 38 251 0.0 0.0 0.00 0.01 0.00 94 1007.7
20191112060226 38 251 0.0 1.0 0.00 0.01 0.00 94 1007.6
20191112054653 38 251 0.0 1.0 0.00 0.01 0.00 94 1007.6
20191112053221 38 266 0.0 2.0 0.00 0.01 0.00 94 1008.1
20191112051631 38 248 0.0 2.0 0.00 0.01 0.00 94 1008.0
20191112050156 38 309 1.0 4.0 0.00 0.01 0.00 93 1008.1
20191112044712 39 213 0.0 3.0 0.00 0.01 0.00 93 1007.9
20191112043217 39 249 0.0 2.0 0.00 0.01 0.00 93 1007.9
20191112041554 39 159 0.0 3.0 0.00 0.01 0.00 93 1007.8
20191112040106 39 5 0.0 6.0 0.00 0.01 0.00 93 1007.4
20191112034552 40 304 0.0 4.0 0.00 0.01 0.00 93 1007.3
20191112033047 40 260 0.0 2.0 0.00 0.01 0.00 92 1007.3
20191112031639 41 273 0.0 4.0 0.00 0.01 0.00 93 1007.1
20191112030134 41 215 2.0 4.0 0.00 0.01 0.00 94 1006.9
20191112024546 41 219 1.0 5.0 0.00 0.01 0.00 94 1006.9
20191112023205 42 250 0.0 6.0 0.00 0.01 0.00 94 1006.9
20191112021554 42 241 0.0 5.0 0.00 0.01 0.00 93 1007.2
20191112020021 42 276 0.0 4.0 0.00 0.01 0.00 92 1007.1
20191112014539 42 245 1.0 6.0 0.00 0.01 0.00 92 1006.9
20191112013036 42 264 0.0 1.0 0.00 0.01 0.00 92 1006.9
20191112011538 42 213 1.0 4.0 0.00 0.01 0.00 93 1006.9
20191112010051 42 209 1.0 7.0 0.00 0.01 0.00 93 1006.7
20191112004529 41 220 3.0 9.0 0.00 0.01 0.00 93 1006.2
20191112003011 41 214 1.0 7.0 0.00 0.01 0.00 93 1006.3
20191112001521 41 205 2.0 10.0 0.00 0.01 0.00 93 1006.4
20191112000007 41 178 3.0 10.0 0.00 0.01 0.00 93 1006.1
20191111234504 41 136 2.0 12.0 0.00 0.01 0.00 93 1006.5
20191111233014 41 193 3.0 8.0 0.00 0.01 0.00 93 1006.5
20191111231706 41 143 1.0 7.0 0.00 0.01 0.00 93 1006.4
20191111230205 41 124 4.0 14.0 0.00 0.01 0.00 93 1006.3
20191111224638 41 126 1.0 8.0 0.00 0.01 0.01 93 1006.3
20191111223139 41 238 2.0 8.0 0.00 0.01 0.01 93 1006.3
20191111221733 41 259 3.0 11.0 0.00 0.01 0.01 93 1006.6
20191111220128 41 162 4.0 11.0 0.00 0.01 0.01 93 1006.7
20191111214657 41 38 4.0 9.0 0.00 0.01 0.01 93 1006.6
20191111213148 41 134 3.0 13.0 0.00 0.01 0.01 92 1006.6
20191111211707 41 180 3.0 11.0 0.00 0.01 0.01 92 1006.8
20191111210126 41 274 4.0 12.0 0.00 0.01 0.01 92 1006.8
20191111204650 41 115 3.0 15.0 0.00 0.01 0.01 91 1006.6
20191111203138 41 147 3.0 11.0 0.00 0.01 0.01 91 1006.7
20191111201620 41 129 2.0 12.0 0.00 0.01 0.01 91 1007.0
20191111200155 41 347 3.0 14.0 0.00 0.01 0.01 90 1006.8
20191111194643 41 198 3.0 12.0 0.00 0.01 0.01 90 1007.0
20191111193131 41 201 7.0 13.0 0.00 0.01 0.01 90 1007.1
20191111191559 41 245 4.0 14.0 0.00 0.01 0.01 90 1007.3
20191111190111 40 90 4.0 13.0 0.00 0.01 0.01 90 1007.3
20191111184641 40 88 4.0 12.0 0.00 0.01 0.01 90 1007.4
20191111183202 40 105 2.0 10.0 0.00 0.01 0.01 90 1007.4
20191111181605 40 224 2.0 8.0 0.00 0.01 0.01 90 1007.6
20191111180128 40 188 4.0 8.0 0.00 0.01 0.01 90 1007.6
20191111174622 40 212 2.0 12.0 0.00 0.01 0.01 89 1007.7
20191111173133 40 179 2.0 8.0 0.00 0.01 0.01 89 1007.6
20191111171631 40 107 3.0 11.0 0.00 0.01 0.01 89 1007.9
20191111170120 40 141 4.0 11.0 0.00 0.01 0.01 89 1008.1
20191111164627 39 110 2.0 10.0 0.00 0.01 0.01 89 1007.9
20191111163111 39 84 6.0 11.0 0.00 0.01 0.01 89 1008.0
20191111161615 39 160 3.0 12.0 0.00 0.01 0.01 89 1008.1
20191111160106 39 75 1.0 10.0 0.00 0.01 0.01 89 1008.4
20191111154538 38 168 2.0 8.0 0.00 0.01 0.01 89 1008.5
20191111153030 38 177 5.0 15.0 0.00 0.01 0.01 89 1008.7
20191111151539 38 120 1.0 11.0 0.00 0.01 0.01 90 1008.8
20191111150028 37 206 1.0 11.0 0.00 0.01 0.01 90 1008.9
20191111144554 37 159 3.0 9.0 0.00 0.01 0.01 91 1009.1
20191111143032 37 118 4.0 14.0 0.00 0.01 0.01 90 1009.2
20191111141519 37 192 5.0 12.0 0.00 0.01 0.01 90 1009.5